Theodore, AL (36582)

1:17 AM CDT on November 01, 2014 (GMT -0500)
Rabbit Creek | Change Station
CLOSE
Current Station
Personal Weather Station
Location: Theodore, AL
Elevation: 15 ft
Nearby Weather Stations
Active Advisory: Wind Advisory

Elev 15 ft 30.58 °N, 88.13 °W | Updated 39 seconds ago

Clear
Clear
53.6 °F
Feels Like 53.6 °F
N
11.0
Wind Variable Wind from North
Gusts 11.0 mph

Today
High -- | Low -- °F
--% Chance of Precip.
Yesterday
High -- | Low -- °F
Precip. -- in
7:07 AM 6:04 PM
Waxing Gibbous, 63% visible
Pressure 30.17 in
Visibility 10.0 miles
Clouds Clear
Dew Point 37 °F
Humidity 53%
Rainfall 0.00 in
Snow Depth Not available.
UV 0 out of 12
Pollen 2.20 out of 12
Air Quality Not available.
Flu Activity Not available.
METAR KBFM 010553Z AUTO 33020G33KT 10SM CLR 12/02 A3017 RMK AO2 PK WND 32033/0549 SLP216 60000 T01170017 10194 20117 402560067 51022

More Conditions Fewer Conditions

Pressure 30.17 in
Visibility 10.0 miles
Clouds Clear
Dew Point 37 °F
Humidity 53%
Rainfall 0.00 in
Snow Depth Not available.
UV 0 out of 12
Pollen 2.20 out of 12
Air Quality Not available.
Flu Activity Not available.
METAR KBFM 010553Z AUTO 33020G33KT 10SM CLR 12/02 A3017 RMK AO2 PK WND 32033/0549 SLP216 60000 T01170017 10194 20117 402560067 51022

More Conditions Fewer Conditions

10-Day Weather Forecast

Almanac

Astronomy

Nov. 01, 2014 Rise Set
Actual Time
Civil Twilight
Nautical Twilight
Astronomical Twilight
Moon
Length of Visible Light
Length of Day
Tomorrow will be .
, % of the Moon is Illuminated

Today's Extremes

State Highs State Lows

Community

WunderPhotos

Upload Photos

1,766,866 photos uploaded!

WunderBlogs® & News

Nearby

Air Quality

  Air Quality AQ Index Pollutant
Not available.

Snow Depth

Station Depth Elevation

Earthquake Activity

City Distance Mag. Time & Date
Minimum magnitude displayed is 2.5.

Coastal Water Temperatures

Place Temperature

Nearby Weather Stations